ADDS METAR Data INFO
IDs: Format: Raw Decoded Include TAF

Data at: 0857 UTC 19 Jun 2018

KSUA 190855Z AUTO 00000KT 10SM CLR 23/21 A3003 RMK AO2
KSUA 190835Z AUTO 00000KT 10SM CLR 23/21 A3002 RMK AO2
KSUA 190815Z AUTO 00000KT 10SM CLR 23/21 A3002 RMK AO2
KSUA 190755Z AUTO 00000KT 10SM CLR 25/21 A3002 RMK AO2
KSUA 190735Z AUTO 00000KT 10SM CLR 25/21 A3003 RMK AO2
KSUA 190715Z AUTO 00000KT 10SM CLR 25/21 A3003 RMK AO2
KSUA 190655Z AUTO 00000KT 10SM CLR 25/21 A3004 RMK AO2
KSUA 190635Z AUTO 09003KT 10SM CLR 25/21 A3004 RMK AO2
KSUA 190615Z AUTO 00000KT 10SM CLR 25/21 A3005 RMK AO2
KSUA 190555Z AUTO 00000KT 10SM CLR 26/21 A3005 RMK AO2
KSUA 190535Z AUTO 10003KT 10SM CLR 26/21 A3005 RMK AO2
KSUA 190515Z AUTO 10004KT 10SM CLR 26/21 A3006 RMK AO2
KSUA 190455Z AUTO 09007KT 10SM CLR 27/21 A3007 RMK AO2
KSUA 190435Z AUTO 10005KT 10SM CLR 27/21 A3007 RMK AO2
KSUA 190415Z AUTO 10007KT 10SM CLR 27/21 A3008 RMK AO2
KSUA 190355Z AUTO 09005KT 10SM CLR 27/21 A3008 RMK AO2
KSUA 190335Z AUTO 10006KT 10SM SCT026 27/21 A3008 RMK AO2
KSUA 190315Z AUTO 09005KT 10SM SCT026 27/21 A3008 RMK AO2
KSUA 190050Z 08006KT 7SM SKC 28/22 A3007
KSUA 182350Z 09090KT 7SM SCT020 29/22 A3007
KSUA 182250Z 09010KT 7SM SCT020 29/22 A3007
KSUA 182150Z 10010KT 7SM SCT020 30/23 A3007
KSUA 182050Z 09012KT 7SM SCT020 30/24 A3007
KSUA 181950Z 09010KT 7SM VCTS SCT020 31/24 A3008
KSUA 181747Z 09005KT 7SM SCT015 BKN025 30/24 A3012
KSUA 181647Z 09005KT 7SM SCT015 BKN025 30/24 A3013
KSUA 181350Z 09005KT 7SM SCT015 30/24 A3014
KSUA 181250Z 09005KT 7SM SCT015 29/24 A3013
KSUA 181147Z 10004KT 7SM SCT015 28/24 A3011
KSUA 181047Z 00000KT 7SM SCT015 27/24 A3011
KSUA 181035Z AUTO 00000KT 10SM SCT024 SCT031 26/23 A3010 RMK AO2
KSUA 181015Z AUTO 03003KT 10SM BKN024 BKN031 26/23 A3010 RMK AO2
KSUA 180955Z AUTO 00000KT 10SM SCT019 26/23 A3010 RMK AO2
KSUA 180935Z AUTO 00000KT 10SM CLR 26/23 A3009 RMK AO2
KSUA 180915Z AUTO 04003KT 10SM CLR 26/23 A3008 RMK AO2 LTG DSNT E
KSUA 180855Z AUTO 00000KT 10SM CLR 26/23 A3008 RMK AO2
KSUA 180835Z AUTO 00000KT 10SM CLR 26/23 A3007 RMK AO2
KSUA 180815Z AUTO 00000KT 10SM CLR 26/23 A3007 RMK AO2
KSUA 180755Z AUTO 00000KT 10SM CLR 26/23 A3007 RMK AO2
KSUA 180735Z AUTO 00000KT 10SM SCT021 26/23 A3008 RMK AO2
KSUA 180715Z AUTO 00000KT 10SM SCT021 26/23 A3008 RMK AO2
KSUA 180655Z AUTO 00000KT 10SM CLR 26/23 A3009 RMK AO2
KSUA 180635Z AUTO 00000KT 10SM CLR 26/23 A3009 RMK AO2
KSUA 180615Z AUTO 00000KT 10SM CLR 26/23 A3010 RMK AO2
KSUA 180555Z AUTO 00000KT 10SM CLR 26/23 A3010 RMK AO2
KSUA 180535Z AUTO 00000KT 10SM CLR 26/23 A3011 RMK AO2
KSUA 180515Z AUTO 00000KT 10SM CLR 27/23 A3011 RMK AO2
KSUA 180455Z AUTO 00000KT 10SM CLR 27/23 A3012 RMK AO2
KSUA 180435Z AUTO 11003KT 10SM CLR 27/23 A3012 RMK AO2
KSUA 180415Z AUTO 00000KT 10SM CLR 27/23 A3012 RMK AO2 LTG DSNT W
KSUA 180355Z AUTO 10004KT 10SM CLR 27/23 A3012 RMK AO2
KSUA 180335Z AUTO 10004KT 10SM CLR 27/23 A3012 RMK AO2
KSUA 180315Z AUTO 09004KT 10SM CLR 27/23 A3012 RMK AO2
KSUA 180050Z 10005KT 7SM SCT020 28/24 A3010
KSUA 172350Z 08006KT 7SM SCT018 29/24 A3010
KSUA 172250Z 08007KT 7SM SCT018 29/24 A3010
KSUA 172150Z 09008KT 7SM SCT020 30/24 A3010